sensor_id;sensor_type;location;lat;lon;timestamp;temperature;humidity
10388;DHT22;5240;51.128;4.566;2023-04-01T00:01:13;9.80;99.90
10388;DHT22;5240;51.128;4.566;2023-04-01T00:03:40;9.80;99.90
10388;DHT22;5240;51.128;4.566;2023-04-01T00:06:08;9.80;99.90
10388;DHT22;5240;51.128;4.566;2023-04-01T00:08:35;9.80;99.90
10388;DHT22;5240;51.128;4.566;2023-04-01T00:11:04;9.80;99.90
10388;DHT22;5240;51.128;4.566;2023-04-01T00:13:31;9.80;99.90
10388;DHT22;5240;51.128;4.566;2023-04-01T00:15:58;9.80;99.90
10388;DHT22;5240;51.128;4.566;2023-04-01T00:18:27;9.80;99.90
10388;DHT22;5240;51.128;4.566;2023-04-01T00:20:54;9.80;99.90
10388;DHT22;5240;51.128;4.566;2023-04-01T00:23:22;9.80;99.90
10388;DHT22;5240;51.128;4.566;2023-04-01T00:25:49;9.80;99.90
10388;DHT22;5240;51.128;4.566;2023-04-01T00:28:19;9.80;99.90
10388;DHT22;5240;51.128;4.566;2023-04-01T00:30:46;9.80;99.90
10388;DHT22;5240;51.128;4.566;2023-04-01T00:33:13;9.80;99.90
10388;DHT22;5240;51.128;4.566;2023-04-01T00:35:41;9.80;99.90
10388;DHT22;5240;51.128;4.566;2023-04-01T00:38:08;9.80;99.90
10388;DHT22;5240;51.128;4.566;2023-04-01T00:40:38;9.80;99.90
10388;DHT22;5240;51.128;4.566;2023-04-01T00:43:11;9.80;99.90
10388;DHT22;5240;51.128;4.566;2023-04-01T00:45:41;9.90;99.90
10388;DHT22;5240;51.128;4.566;2023-04-01T00:48:11;9.90;99.90
10388;DHT22;5240;51.128;4.566;2023-04-01T00:50:42;9.80;99.90
10388;DHT22;5240;51.128;4.566;2023-04-01T00:53:10;9.90;99.90
10388;DHT22;5240;51.128;4.566;2023-04-01T00:55:42;9.80;99.90
10388;DHT22;5240;51.128;4.566;2023-04-01T00:58:14;9.80;99.90
10388;DHT22;5240;51.128;4.566;2023-04-01T01:00:43;9.80;99.90
10388;DHT22;5240;51.128;4.566;2023-04-01T01:03:12;9.80;99.90
10388;DHT22;5240;51.128;4.566;2023-04-01T01:05:52;9.90;99.90
10388;DHT22;5240;51.128;4.566;2023-04-01T01:08:27;9.90;99.90
10388;DHT22;5240;51.128;4.566;2023-04-01T01:10:57;9.90;99.90
10388;DHT22;5240;51.128;4.566;2023-04-01T01:13:28;9.90;99.90
10388;DHT22;5240;51.128;4.566;2023-04-01T01:16:06;9.90;99.90
10388;DHT22;5240;51.128;4.566;2023-04-01T01:18:39;9.90;99.90
10388;DHT22;5240;51.128;4.566;2023-04-01T01:21:42;9.90;99.90
10388;DHT22;5240;51.128;4.566;2023-04-01T01:24:27;9.90;99.90
10388;DHT22;5240;51.128;4.566;2023-04-01T01:27:06;9.90;99.90
10388;DHT22;5240;51.128;4.566;2023-04-01T01:32:54;9.90;99.90
10388;DHT22;5240;51.128;4.566;2023-04-01T01:35:27;9.90;99.90
10388;DHT22;5240;51.128;4.566;2023-04-01T01:38:00;9.80;99.90
10388;DHT22;5240;51.128;4.566;2023-04-01T01:40:31;9.90;99.90
10388;DHT22;5240;51.128;4.566;2023-04-01T01:43:02;9.90;99.90
10388;DHT22;5240;51.128;4.566;2023-04-01T01:45:32;9.90;99.90
10388;DHT22;5240;51.128;4.566;2023-04-01T01:48:02;9.90;99.90
10388;DHT22;5240;51.128;4.566;2023-04-01T01:50:33;10.00;99.90
10388;DHT22;5240;51.128;4.566;2023-04-01T01:53:03;9.90;99.90
10388;DHT22;5240;51.128;4.566;2023-04-01T01:55:32;9.90;99.90
10388;DHT22;5240;51.128;4.566;2023-04-01T01:58:02;9.90;99.90
10388;DHT22;5240;51.128;4.566;2023-04-01T02:00:32;9.80;99.90
10388;DHT22;5240;51.128;4.566;2023-04-01T02:03:00;9.80;99.90
10388;DHT22;5240;51.128;4.566;2023-04-01T02:05:29;9.70;99.90
10388;DHT22;5240;51.128;4.566;2023-04-01T02:08:02;9.70;99.90
10388;DHT22;5240;51.128;4.566;2023-04-01T02:10:32;9.70;99.90
10388;DHT22;5240;51.128;4.566;2023-04-01T02:13:05;9.80;99.90
10388;DHT22;5240;51.128;4.566;2023-04-01T02:15:40;9.70;99.90
10388;DHT22;5240;51.128;4.566;2023-04-01T02:18:09;9.80;99.90
10388;DHT22;5240;51.128;4.566;2023-04-01T02:20:39;9.80;99.90
10388;DHT22;5240;51.128;4.566;2023-04-01T02:23:10;9.70;99.90
10388;DHT22;5240;51.128;4.566;2023-04-01T02:25:37;9.80;99.90
10388;DHT22;5240;51.128;4.566;2023-04-01T02:28:07;9.80;99.90
10388;DHT22;5240;51.128;4.566;2023-04-01T02:30:37;9.70;99.90
10388;DHT22;5240;51.128;4.566;2023-04-01T02:33:06;9.70;99.90
10388;DHT22;5240;51.128;4.566;2023-04-01T02:35:34;9.70;99.90
10388;DHT22;5240;51.128;4.566;2023-04-01T02:38:02;9.70;99.90
10388;DHT22;5240;51.128;4.566;2023-04-01T02:40:41;9.70;99.90
10388;DHT22;5240;51.128;4.566;2023-04-01T02:43:08;9.70;99.90
10388;DHT22;5240;51.128;4.566;2023-04-01T02:45:35;9.60;99.90
10388;DHT22;5240;51.128;4.566;2023-04-01T02:48:03;9.60;99.90
10388;DHT22;5240;51.128;4.566;2023-04-01T02:50:30;9.60;99.90
10388;DHT22;5240;51.128;4.566;2023-04-01T02:52:57;9.60;99.90
10388;DHT22;5240;51.128;4.566;2023-04-01T02:55:24;9.60;99.90
10388;DHT22;5240;51.128;4.566;2023-04-01T02:57:52;9.60;99.90
10388;DHT22;5240;51.128;4.566;2023-04-01T03:00:19;9.60;99.90
10388;DHT22;5240;51.128;4.566;2023-04-01T03:02:47;9.60;99.90
10388;DHT22;5240;51.128;4.566;2023-04-01T03:05:14;9.50;99.90
10388;DHT22;5240;51.128;4.566;2023-04-01T03:07:41;9.60;99.90
10388;DHT22;5240;51.128;4.566;2023-04-01T03:10:09;9.60;99.90
10388;DHT22;5240;51.128;4.566;2023-04-01T03:12:36;9.60;99.90
10388;DHT22;5240;51.128;4.566;2023-04-01T03:15:05;9.60;99.90
10388;DHT22;5240;51.128;4.566;2023-04-01T03:17:32;9.60;99.90
10388;DHT22;5240;51.128;4.566;2023-04-01T03:19:59;9.60;99.90
10388;DHT22;5240;51.128;4.566;2023-04-01T03:22:27;9.60;99.90
10388;DHT22;5240;51.128;4.566;2023-04-01T03:24:54;9.50;99.90
10388;DHT22;5240;51.128;4.566;2023-04-01T03:27:21;9.50;99.90
10388;DHT22;5240;51.128;4.566;2023-04-01T03:29:48;9.50;99.90
10388;DHT22;5240;51.128;4.566;2023-04-01T03:32:17;9.50;99.90
10388;DHT22;5240;51.128;4.566;2023-04-01T03:34:44;9.60;99.90
10388;DHT22;5240;51.128;4.566;2023-04-01T03:37:11;9.50;99.90
10388;DHT22;5240;51.128;4.566;2023-04-01T03:39:38;9.50;99.90
10388;DHT22;5240;51.128;4.566;2023-04-01T03:42:05;9.50;99.90
10388;DHT22;5240;51.128;4.566;2023-04-01T03:44:33;9.50;99.90
10388;DHT22;5240;51.128;4.566;2023-04-01T03:47:00;9.50;99.90
10388;DHT22;5240;51.128;4.566;2023-04-01T03:49:29;9.60;99.90
10388;DHT22;5240;51.128;4.566;2023-04-01T03:51:58;9.50;99.90
10388;DHT22;5240;51.128;4.566;2023-04-01T03:54:25;9.60;99.90
10388;DHT22;5240;51.128;4.566;2023-04-01T03:56:52;9.50;99.90
10388;DHT22;5240;51.128;4.566;2023-04-01T03:59:20;9.50;99.90
10388;DHT22;5240;51.128;4.566;2023-04-01T04:01:47;9.50;99.90
10388;DHT22;5240;51.128;4.566;2023-04-01T04:04:14;9.50;99.90
10388;DHT22;5240;51.128;4.566;2023-04-01T04:06:43;9.50;99.90
10388;DHT22;5240;51.128;4.566;2023-04-01T04:09:10;9.50;99.90
10388;DHT22;5240;51.128;4.566;2023-04-01T04:11:37;9.50;99.90
10388;DHT22;5240;51.128;4.566;2023-04-01T04:14:04;9.50;99.90
10388;DHT22;5240;51.128;4.566;2023-04-01T04:16:31;9.50;99.90
10388;DHT22;5240;51.128;4.566;2023-04-01T04:18:58;9.50;99.90
10388;DHT22;5240;51.128;4.566;2023-04-01T04:21:25;9.50;99.90
10388;DHT22;5240;51.128;4.566;2023-04-01T04:23:53;9.40;99.90
10388;DHT22;5240;51.128;4.566;2023-04-01T04:26:21;9.50;99.90
10388;DHT22;5240;51.128;4.566;2023-04-01T04:28:48;9.50;99.90
10388;DHT22;5240;51.128;4.566;2023-04-01T04:31:18;9.50;99.90
10388;DHT22;5240;51.128;4.566;2023-04-01T04:33:46;9.50;99.90
10388;DHT22;5240;51.128;4.566;2023-04-01T04:36:13;9.40;99.90
10388;DHT22;5240;51.128;4.566;2023-04-01T04:38:40;9.50;99.90
10388;DHT22;5240;51.128;4.566;2023-04-01T04:41:10;9.50;99.90
10388;DHT22;5240;51.128;4.566;2023-04-01T04:43:38;9.50;99.90
10388;DHT22;5240;51.128;4.566;2023-04-01T04:46:06;9.50;99.90
10388;DHT22;5240;51.128;4.566;2023-04-01T04:48:33;9.50;99.90
10388;DHT22;5240;51.128;4.566;2023-04-01T04:51:00;9.50;99.90
10388;DHT22;5240;51.128;4.566;2023-04-01T04:53:27;9.50;99.90
10388;DHT22;5240;51.128;4.566;2023-04-01T04:55:55;9.40;99.90
10388;DHT22;5240;51.128;4.566;2023-04-01T04:58:23;9.40;99.90
10388;DHT22;5240;51.128;4.566;2023-04-01T05:00:50;9.40;99.90
10388;DHT22;5240;51.128;4.566;2023-04-01T05:03:17;9.40;99.90
10388;DHT22;5240;51.128;4.566;2023-04-01T05:05:51;9.50;99.90
10388;DHT22;5240;51.128;4.566;2023-04-01T05:08:19;9.40;99.90
10388;DHT22;5240;51.128;4.566;2023-04-01T05:10:47;9.40;99.90
10388;DHT22;5240;51.128;4.566;2023-04-01T05:13:14;9.40;99.90
10388;DHT22;5240;51.128;4.566;2023-04-01T05:15:42;9.40;99.90
10388;DHT22;5240;51.128;4.566;2023-04-01T05:18:09;9.40;99.90
10388;DHT22;5240;51.128;4.566;2023-04-01T05:20:36;9.30;99.90
10388;DHT22;5240;51.128;4.566;2023-04-01T05:23:03;9.40;99.90
10388;DHT22;5240;51.128;4.566;2023-04-01T05:25:30;9.30;99.90
10388;DHT22;5240;51.128;4.566;2023-04-01T05:27:57;9.40;99.90
10388;DHT22;5240;51.128;4.566;2023-04-01T05:30:24;9.40;99.90
10388;DHT22;5240;51.128;4.566;2023-04-01T05:32:53;9.40;99.90
10388;DHT22;5240;51.128;4.566;2023-04-01T05:35:20;9.40;99.90
10388;DHT22;5240;51.128;4.566;2023-04-01T05:37:47;9.30;99.90
10388;DHT22;5240;51.128;4.566;2023-04-01T05:40:14;9.30;99.90
10388;DHT22;5240;51.128;4.566;2023-04-01T05:42:41;9.30;99.90
10388;DHT22;5240;51.128;4.566;2023-04-01T05:45:09;9.30;99.90
10388;DHT22;5240;51.128;4.566;2023-04-01T05:47:36;9.30;99.90
10388;DHT22;5240;51.128;4.566;2023-04-01T05:50:05;9.30;99.90
10388;DHT22;5240;51.128;4.566;2023-04-01T05:52:32;9.30;99.90
10388;DHT22;5240;51.128;4.566;2023-04-01T05:54:59;9.30;99.90
10388;DHT22;5240;51.128;4.566;2023-04-01T05:57:26;9.30;99.90
10388;DHT22;5240;51.128;4.566;2023-04-01T05:59:53;9.30;99.90
10388;DHT22;5240;51.128;4.566;2023-04-01T06:02:20;9.30;99.90
10388;DHT22;5240;51.128;4.566;2023-04-01T06:04:47;9.30;99.90
10388;DHT22;5240;51.128;4.566;2023-04-01T06:07:17;9.30;99.90
10388;DHT22;5240;51.128;4.566;2023-04-01T06:09:45;9.30;99.90
10388;DHT22;5240;51.128;4.566;2023-04-01T06:12:40;9.30;99.90
10388;DHT22;5240;51.128;4.566;2023-04-01T06:15:25;9.20;99.90
10388;DHT22;5240;51.128;4.566;2023-04-01T06:20:55;9.30;99.90
10388;DHT22;5240;51.128;4.566;2023-04-01T06:23:37;9.30;99.90
10388;DHT22;5240;51.128;4.566;2023-04-01T06:26:23;9.30;99.90
10388;DHT22;5240;51.128;4.566;2023-04-01T06:32:16;9.30;99.90
10388;DHT22;5240;51.128;4.566;2023-04-01T06:35:07;9.30;99.90
10388;DHT22;5240;51.128;4.566;2023-04-01T06:38:00;9.30;99.90
10388;DHT22;5240;51.128;4.566;2023-04-01T06:41:03;9.30;99.90
10388;DHT22;5240;51.128;4.566;2023-04-01T06:43:41;9.30;99.90
10388;DHT22;5240;51.128;4.566;2023-04-01T06:46:17;9.30;99.90
10388;DHT22;5240;51.128;4.566;2023-04-01T06:49:06;9.30;99.90
10388;DHT22;5240;51.128;4.566;2023-04-01T06:51:41;9.30;99.90
10388;DHT22;5240;51.128;4.566;2023-04-01T06:54:13;9.40;99.90
10388;DHT22;5240;51.128;4.566;2023-04-01T06:56:45;9.40;99.90
10388;DHT22;5240;51.128;4.566;2023-04-01T06:59:16;9.40;99.90
10388;DHT22;5240;51.128;4.566;2023-04-01T07:01:47;9.40;99.90
10388;DHT22;5240;51.128;4.566;2023-04-01T07:04:20;9.40;99.90
10388;DHT22;5240;51.128;4.566;2023-04-01T07:06:52;9.40;99.90
10388;DHT22;5240;51.128;4.566;2023-04-01T07:09:22;9.40;99.90
10388;DHT22;5240;51.128;4.566;2023-04-01T07:11:53;9.40;99.90
10388;DHT22;5240;51.128;4.566;2023-04-01T07:14:25;9.40;99.90
10388;DHT22;5240;51.128;4.566;2023-04-01T07:16:58;9.40;99.90
10388;DHT22;5240;51.128;4.566;2023-04-01T07:19:31;9.40;99.90
10388;DHT22;5240;51.128;4.566;2023-04-01T07:22:01;9.50;99.90
10388;DHT22;5240;51.128;4.566;2023-04-01T07:24:33;9.40;99.90
10388;DHT22;5240;51.128;4.566;2023-04-01T07:27:02;9.40;99.90
10388;DHT22;5240;51.128;4.566;2023-04-01T07:29:30;9.40;99.90
10388;DHT22;5240;51.128;4.566;2023-04-01T07:35:00;9.50;99.90
10388;DHT22;5240;51.128;4.566;2023-04-01T07:37:34;9.50;99.90
10388;DHT22;5240;51.128;4.566;2023-04-01T07:40:14;9.40;99.90
10388;DHT22;5240;51.128;4.566;2023-04-01T07:42:59;9.50;99.90
10388;DHT22;5240;51.128;4.566;2023-04-01T07:45:31;9.50;99.90
10388;DHT22;5240;51.128;4.566;2023-04-01T07:48:15;9.60;99.90
10388;DHT22;5240;51.128;4.566;2023-04-01T07:50:49;9.60;99.90
10388;DHT22;5240;51.128;4.566;2023-04-01T07:53:26;9.70;99.90
10388;DHT22;5240;51.128;4.566;2023-04-01T07:56:04;9.80;99.90
10388;DHT22;5240;51.128;4.566;2023-04-01T07:58:42;9.70;99.90
10388;DHT22;5240;51.128;4.566;2023-04-01T08:01:16;9.70;99.90
10388;DHT22;5240;51.128;4.566;2023-04-01T08:06:44;9.70;99.90
10388;DHT22;5240;51.128;4.566;2023-04-01T08:09:21;9.70;99.90
10388;DHT22;5240;51.128;4.566;2023-04-01T08:11:57;9.80;99.90
10388;DHT22;5240;51.128;4.566;2023-04-01T08:14:34;9.70;99.90
10388;DHT22;5240;51.128;4.566;2023-04-01T08:17:07;9.70;99.90
10388;DHT22;5240;51.128;4.566;2023-04-01T08:19:48;9.80;99.90
10388;DHT22;5240;51.128;4.566;2023-04-01T08:22:26;9.80;99.90
10388;DHT22;5240;51.128;4.566;2023-04-01T08:24:55;9.80;99.90
10388;DHT22;5240;51.128;4.566;2023-04-01T08:27:28;9.90;99.90
10388;DHT22;5240;51.128;4.566;2023-04-01T08:30:02;9.80;99.90
10388;DHT22;5240;51.128;4.566;2023-04-01T08:32:34;9.90;99.90
10388;DHT22;5240;51.128;4.566;2023-04-01T08:35:08;10.00;99.90
10388;DHT22;5240;51.128;4.566;2023-04-01T08:37:39;9.90;99.90
10388;DHT22;5240;51.128;4.566;2023-04-01T08:40:29;10.00;99.90
10388;DHT22;5240;51.128;4.566;2023-04-01T08:43:09;10.00;99.90
10388;DHT22;5240;51.128;4.566;2023-04-01T08:45:49;10.10;99.90
10388;DHT22;5240;51.128;4.566;2023-04-01T08:48:33;10.10;99.90
10388;DHT22;5240;51.128;4.566;2023-04-01T08:54:24;10.10;99.90
10388;DHT22;5240;51.128;4.566;2023-04-01T08:56:59;10.10;99.90
10388;DHT22;5240;51.128;4.566;2023-04-01T08:59:46;10.10;99.90
10388;DHT22;5240;51.128;4.566;2023-04-01T09:02:35;10.00;99.90
10388;DHT22;5240;51.128;4.566;2023-04-01T09:05:45;10.00;99.90
10388;DHT22;5240;51.128;4.566;2023-04-01T09:08:28;10.00;99.90
10388;DHT22;5240;51.128;4.566;2023-04-01T09:11:08;10.10;99.90
10388;DHT22;5240;51.128;4.566;2023-04-01T09:13:55;10.20;99.90
10388;DHT22;5240;51.128;4.566;2023-04-01T09:19:31;10.00;99.90
10388;DHT22;5240;51.128;4.566;2023-04-01T09:22:25;10.20;99.90
10388;DHT22;5240;51.128;4.566;2023-04-01T09:25:12;10.20;99.90
10388;DHT22;5240;51.128;4.566;2023-04-01T09:27:45;10.30;99.90
10388;DHT22;5240;51.128;4.566;2023-04-01T09:30:33;10.20;99.90
10388;DHT22;5240;51.128;4.566;2023-04-01T09:36:22;10.20;99.90
10388;DHT22;5240;51.128;4.566;2023-04-01T09:38:57;10.20;99.90
10388;DHT22;5240;51.128;4.566;2023-04-01T09:41:30;10.00;99.90
10388;DHT22;5240;51.128;4.566;2023-04-01T09:44:02;10.00;99.90
10388;DHT22;5240;51.128;4.566;2023-04-01T09:46:46;9.90;99.90
10388;DHT22;5240;51.128;4.566;2023-04-01T09:49:53;10.10;99.90
10388;DHT22;5240;51.128;4.566;2023-04-01T09:52:32;10.10;99.90
10388;DHT22;5240;51.128;4.566;2023-04-01T09:55:19;10.10;99.90
10388;DHT22;5240;51.128;4.566;2023-04-01T10:01:25;10.40;99.90
10388;DHT22;5240;51.128;4.566;2023-04-01T10:07:33;10.50;99.90
10388;DHT22;5240;51.128;4.566;2023-04-01T10:10:33;10.50;99.90
10388;DHT22;5240;51.128;4.566;2023-04-01T10:16:32;10.40;99.90
10388;DHT22;5240;51.128;4.566;2023-04-01T10:22:28;10.20;99.90
10388;DHT22;5240;51.128;4.566;2023-04-01T10:25:23;10.20;99.90
10388;DHT22;5240;51.128;4.566;2023-04-01T10:28:25;10.30;99.90
10388;DHT22;5240;51.128;4.566;2023-04-01T10:34:21;10.40;99.90
10388;DHT22;5240;51.128;4.566;2023-04-01T10:36:55;10.40;99.90
10388;DHT22;5240;51.128;4.566;2023-04-01T10:42:57;10.40;99.90
10388;DHT22;5240;51.128;4.566;2023-04-01T10:54:45;10.50;99.90
10388;DHT22;5240;51.128;4.566;2023-04-01T10:57:28;10.60;99.90
10388;DHT22;5240;51.128;4.566;2023-04-01T11:09:48;10.60;99.90
10388;DHT22;5240;51.128;4.566;2023-04-01T11:15:37;10.70;99.90
10388;DHT22;5240;51.128;4.566;2023-04-01T11:21:38;10.70;99.90
10388;DHT22;5240;51.128;4.566;2023-04-01T11:24:26;10.80;99.90
10388;DHT22;5240;51.128;4.566;2023-04-01T11:27:08;10.70;99.90
10388;DHT22;5240;51.128;4.566;2023-04-01T11:30:04;10.60;99.90
10388;DHT22;5240;51.128;4.566;2023-04-01T11:32:42;10.60;99.90
10388;DHT22;5240;51.128;4.566;2023-04-01T11:35:32;10.50;99.90
10388;DHT22;5240;51.128;4.566;2023-04-01T11:38:05;10.40;99.90
10388;DHT22;5240;51.128;4.566;2023-04-01T11:40:40;10.40;99.90
10388;DHT22;5240;51.128;4.566;2023-04-01T11:43:19;10.40;99.90
10388;DHT22;5240;51.128;4.566;2023-04-01T11:45:52;10.30;99.90
10388;DHT22;5240;51.128;4.566;2023-04-01T11:48:36;10.30;99.90
10388;DHT22;5240;51.128;4.566;2023-04-01T11:51:30;10.20;99.90
10388;DHT22;5240;51.128;4.566;2023-04-01T11:54:10;10.20;99.90
10388;DHT22;5240;51.128;4.566;2023-04-01T11:56:54;10.30;99.90
10388;DHT22;5240;51.128;4.566;2023-04-01T12:02:25;10.40;99.90
10388;DHT22;5240;51.128;4.566;2023-04-01T12:08:07;10.50;99.90
10388;DHT22;5240;51.128;4.566;2023-04-01T12:10:40;10.60;99.90
10388;DHT22;5240;51.128;4.566;2023-04-01T12:13:22;10.60;99.90
10388;DHT22;5240;51.128;4.566;2023-04-01T12:16:16;10.60;99.90
10388;DHT22;5240;51.128;4.566;2023-04-01T12:18:52;10.70;99.90
10388;DHT22;5240;51.128;4.566;2023-04-01T12:21:26;10.70;99.90
10388;DHT22;5240;51.128;4.566;2023-04-01T12:24:25;10.80;99.90
10388;DHT22;5240;51.128;4.566;2023-04-01T12:30:20;10.80;99.90
10388;DHT22;5240;51.128;4.566;2023-04-01T12:32:58;10.80;99.90
10388;DHT22;5240;51.128;4.566;2023-04-01T12:35:34;10.70;99.90
10388;DHT22;5240;51.128;4.566;2023-04-01T12:38:17;10.70;99.90
10388;DHT22;5240;51.128;4.566;2023-04-01T12:40:55;10.70;99.90
10388;DHT22;5240;51.128;4.566;2023-04-01T12:43:55;10.70;99.90
10388;DHT22;5240;51.128;4.566;2023-04-01T12:46:30;10.70;99.90
10388;DHT22;5240;51.128;4.566;2023-04-01T12:49:14;10.70;99.90
10388;DHT22;5240;51.128;4.566;2023-04-01T12:52:04;10.80;99.90
10388;DHT22;5240;51.128;4.566;2023-04-01T12:55:07;10.80;99.90
10388;DHT22;5240;51.128;4.566;2023-04-01T13:00:59;11.10;99.90
10388;DHT22;5240;51.128;4.566;2023-04-01T13:03:44;11.00;99.90
10388;DHT22;5240;51.128;4.566;2023-04-01T13:06:30;10.90;99.90
10388;DHT22;5240;51.128;4.566;2023-04-01T13:09:10;10.90;99.90
10388;DHT22;5240;51.128;4.566;2023-04-01T13:11:51;10.90;99.90
10388;DHT22;5240;51.128;4.566;2023-04-01T13:14:40;10.80;99.90
10388;DHT22;5240;51.128;4.566;2023-04-01T13:17:16;10.80;99.90
10388;DHT22;5240;51.128;4.566;2023-04-01T13:19:50;10.80;99.90
10388;DHT22;5240;51.128;4.566;2023-04-01T13:22:28;10.70;99.90
10388;DHT22;5240;51.128;4.566;2023-04-01T13:24:59;10.80;99.90
10388;DHT22;5240;51.128;4.566;2023-04-01T13:27:33;10.80;99.90
10388;DHT22;5240;51.128;4.566;2023-04-01T13:30:20;10.80;99.90
10388;DHT22;5240;51.128;4.566;2023-04-01T13:32:54;10.80;99.90
10388;DHT22;5240;51.128;4.566;2023-04-01T13:35:33;10.70;99.90
10388;DHT22;5240;51.128;4.566;2023-04-01T13:38:20;10.80;99.90
10388;DHT22;5240;51.128;4.566;2023-04-01T13:40:55;10.80;99.90
10388;DHT22;5240;51.128;4.566;2023-04-01T13:43:29;10.80;99.90
10388;DHT22;5240;51.128;4.566;2023-04-01T13:46:17;10.90;99.90
10388;DHT22;5240;51.128;4.566;2023-04-01T13:49:12;10.80;99.90
10388;DHT22;5240;51.128;4.566;2023-04-01T13:55:06;10.60;99.90
10388;DHT22;5240;51.128;4.566;2023-04-01T14:01:01;10.70;99.90
10388;DHT22;5240;51.128;4.566;2023-04-01T14:03:41;10.70;99.90
10388;DHT22;5240;51.128;4.566;2023-04-01T14:06:18;10.70;99.90
10388;DHT22;5240;51.128;4.566;2023-04-01T14:11:50;10.90;99.90
10388;DHT22;5240;51.128;4.566;2023-04-01T14:14:31;10.90;99.90
10388;DHT22;5240;51.128;4.566;2023-04-01T14:20:02;10.70;99.90
10388;DHT22;5240;51.128;4.566;2023-04-01T14:22:38;10.60;99.90
10388;DHT22;5240;51.128;4.566;2023-04-01T14:25:34;10.60;99.90
10388;DHT22;5240;51.128;4.566;2023-04-01T14:28:16;10.70;99.90
10388;DHT22;5240;51.128;4.566;2023-04-01T14:31:12;10.80;99.90
10388;DHT22;5240;51.128;4.566;2023-04-01T14:33:46;11.10;99.90
10388;DHT22;5240;51.128;4.566;2023-04-01T14:36:46;11.20;99.90
10388;DHT22;5240;51.128;4.566;2023-04-01T14:39:43;11.30;99.90
10388;DHT22;5240;51.128;4.566;2023-04-01T14:42:31;11.30;99.90
10388;DHT22;5240;51.128;4.566;2023-04-01T14:45:27;11.10;99.90
10388;DHT22;5240;51.128;4.566;2023-04-01T14:48:00;11.10;99.90
10388;DHT22;5240;51.128;4.566;2023-04-01T14:50:41;11.20;99.90
10388;DHT22;5240;51.128;4.566;2023-04-01T14:53:16;11.10;99.90
10388;DHT22;5240;51.128;4.566;2023-04-01T14:55:53;11.00;99.90
10388;DHT22;5240;51.128;4.566;2023-04-01T14:58:22;10.90;99.90
10388;DHT22;5240;51.128;4.566;2023-04-01T15:01:00;10.90;99.90
10388;DHT22;5240;51.128;4.566;2023-04-01T15:03:38;10.80;99.90
10388;DHT22;5240;51.128;4.566;2023-04-01T15:06:30;10.70;99.90
10388;DHT22;5240;51.128;4.566;2023-04-01T15:09:05;10.60;99.90
10388;DHT22;5240;51.128;4.566;2023-04-01T15:11:48;10.60;99.90
10388;DHT22;5240;51.128;4.566;2023-04-01T15:20:34;10.60;99.90
10388;DHT22;5240;51.128;4.566;2023-04-01T15:23:35;10.70;99.90
10388;DHT22;5240;51.128;4.566;2023-04-01T15:26:27;10.60;99.90
10388;DHT22;5240;51.128;4.566;2023-04-01T15:29:11;10.50;99.90
10388;DHT22;5240;51.128;4.566;2023-04-01T15:31:45;10.60;99.90
10388;DHT22;5240;51.128;4.566;2023-04-01T15:34:24;10.70;99.90
10388;DHT22;5240;51.128;4.566;2023-04-01T15:36:59;10.60;99.90
10388;DHT22;5240;51.128;4.566;2023-04-01T15:39:43;10.40;99.90
10388;DHT22;5240;51.128;4.566;2023-04-01T15:42:25;10.30;99.90
10388;DHT22;5240;51.128;4.566;2023-04-01T15:45:12;10.20;99.90
10388;DHT22;5240;51.128;4.566;2023-04-01T15:47:42;10.20;99.90
10388;DHT22;5240;51.128;4.566;2023-04-01T15:50:29;10.10;99.90
10388;DHT22;5240;51.128;4.566;2023-04-01T15:53:18;10.10;99.90
10388;DHT22;5240;51.128;4.566;2023-04-01T15:55:51;9.90;99.90
10388;DHT22;5240;51.128;4.566;2023-04-01T15:58:34;9.90;99.90
10388;DHT22;5240;51.128;4.566;2023-04-01T16:01:13;9.90;99.90
10388;DHT22;5240;51.128;4.566;2023-04-01T16:03:50;10.00;99.90
10388;DHT22;5240;51.128;4.566;2023-04-01T16:06:44;10.00;99.90
10388;DHT22;5240;51.128;4.566;2023-04-01T16:09:39;9.90;99.90
10388;DHT22;5240;51.128;4.566;2023-04-01T16:12:16;9.90;99.90
10388;DHT22;5240;51.128;4.566;2023-04-01T16:14:54;9.90;99.90
10388;DHT22;5240;51.128;4.566;2023-04-01T16:17:36;9.90;99.90
10388;DHT22;5240;51.128;4.566;2023-04-01T16:20:18;9.90;99.90
10388;DHT22;5240;51.128;4.566;2023-04-01T16:22:50;9.90;99.90
10388;DHT22;5240;51.128;4.566;2023-04-01T16:25:31;9.90;99.90
10388;DHT22;5240;51.128;4.566;2023-04-01T16:28:09;9.90;99.90
10388;DHT22;5240;51.128;4.566;2023-04-01T16:30:43;9.90;99.90
10388;DHT22;5240;51.128;4.566;2023-04-01T16:33:15;9.90;99.90
10388;DHT22;5240;51.128;4.566;2023-04-01T16:35:53;9.90;99.90
10388;DHT22;5240;51.128;4.566;2023-04-01T16:38:25;9.90;99.90
10388;DHT22;5240;51.128;4.566;2023-04-01T16:41:05;9.90;99.90
10388;DHT22;5240;51.128;4.566;2023-04-01T16:43:40;9.80;99.90
10388;DHT22;5240;51.128;4.566;2023-04-01T16:46:23;9.80;99.90
10388;DHT22;5240;51.128;4.566;2023-04-01T16:48:59;9.90;99.90
10388;DHT22;5240;51.128;4.566;2023-04-01T16:51:34;9.90;99.90
10388;DHT22;5240;51.128;4.566;2023-04-01T16:54:10;9.90;99.90
10388;DHT22;5240;51.128;4.566;2023-04-01T16:56:43;9.80;99.90
10388;DHT22;5240;51.128;4.566;2023-04-01T16:59:19;9.80;99.90
10388;DHT22;5240;51.128;4.566;2023-04-01T17:01:52;9.80;99.90
10388;DHT22;5240;51.128;4.566;2023-04-01T17:04:27;9.80;99.90
10388;DHT22;5240;51.128;4.566;2023-04-01T17:07:04;9.80;99.90
10388;DHT22;5240;51.128;4.566;2023-04-01T17:10:02;9.80;99.90
10388;DHT22;5240;51.128;4.566;2023-04-01T17:12:39;9.80;99.90
10388;DHT22;5240;51.128;4.566;2023-04-01T17:15:19;9.80;99.90
10388;DHT22;5240;51.128;4.566;2023-04-01T17:17:53;9.80;99.90
10388;DHT22;5240;51.128;4.566;2023-04-01T17:20:39;9.80;99.90
10388;DHT22;5240;51.128;4.566;2023-04-01T17:23:14;9.80;99.90
10388;DHT22;5240;51.128;4.566;2023-04-01T17:25:52;9.80;99.90
10388;DHT22;5240;51.128;4.566;2023-04-01T17:28:31;9.80;99.90
10388;DHT22;5240;51.128;4.566;2023-04-01T17:31:07;9.80;99.90
10388;DHT22;5240;51.128;4.566;2023-04-01T17:34:02;9.80;99.90
10388;DHT22;5240;51.128;4.566;2023-04-01T17:36:42;9.80;99.90
10388;DHT22;5240;51.128;4.566;2023-04-01T17:39:25;9.80;99.90
10388;DHT22;5240;51.128;4.566;2023-04-01T17:41:54;9.90;99.90
10388;DHT22;5240;51.128;4.566;2023-04-01T17:44:33;9.80;99.90
10388;DHT22;5240;51.128;4.566;2023-04-01T17:50:07;9.70;99.90
10388;DHT22;5240;51.128;4.566;2023-04-01T17:52:42;9.70;99.90
10388;DHT22;5240;51.128;4.566;2023-04-01T17:58:10;9.60;99.90
10388;DHT22;5240;51.128;4.566;2023-04-01T18:00:51;9.50;99.90
10388;DHT22;5240;51.128;4.566;2023-04-01T18:03:37;9.50;99.90
10388;DHT22;5240;51.128;4.566;2023-04-01T18:06:14;9.50;99.90
10388;DHT22;5240;51.128;4.566;2023-04-01T18:08:56;9.50;99.90
10388;DHT22;5240;51.128;4.566;2023-04-01T18:11:39;9.50;99.90
10388;DHT22;5240;51.128;4.566;2023-04-01T18:14:40;9.50;99.90
10388;DHT22;5240;51.128;4.566;2023-04-01T18:17:41;9.40;99.90
10388;DHT22;5240;51.128;4.566;2023-04-01T18:20:36;9.50;99.90
10388;DHT22;5240;51.128;4.566;2023-04-01T18:23:14;9.50;99.90
10388;DHT22;5240;51.128;4.566;2023-04-01T18:25:51;9.50;99.90
10388;DHT22;5240;51.128;4.566;2023-04-01T18:28:25;9.50;99.90
10388;DHT22;5240;51.128;4.566;2023-04-01T18:31:06;9.50;99.90
10388;DHT22;5240;51.128;4.566;2023-04-01T18:33:45;9.50;99.90
10388;DHT22;5240;51.128;4.566;2023-04-01T18:36:19;9.50;99.90
10388;DHT22;5240;51.128;4.566;2023-04-01T18:38:52;9.50;99.90
10388;DHT22;5240;51.128;4.566;2023-04-01T18:41:30;9.40;99.90